Time;durP1;ratioP1;P1;durP2;ratioP2;P2;SDS_P1;SDS_P2;PMS_P1;PMS_P2;Temp;Humidity;BMP_temperature;BMP_pressure;BME280_temperature;BME280_humidity;BME280_pressure;Samples;Min_cycle;Max_cycle;Signal;HPM_P1;HPM_P2
2022/04/21 00:00:22;;;;;;;0.10;0.10;;;;;;;;;;5092272;28;20654;-66
2022/04/21 00:02:50;;;;;;;0.00;0.00;;;;;;;;;;5099010;28;20203;-66
2022/04/21 00:05:18;;;;;;;0.00;0.00;;;;;;;;;;5103907;28;20213;-66
2022/04/21 00:07:47;;;;;;;0.07;0.07;;;;;;;;;;5094855;28;20229;-66
2022/04/21 00:10:14;;;;;;;0.00;0.00;;;;;;;;;;5099557;28;20189;-65
2022/04/21 00:12:42;;;;;;;0.00;0.00;;;;;;;;;;5108115;28;20194;-65
2022/04/21 00:15:10;;;;;;;0.00;0.00;;;;;;;;;;5110783;28;20202;-65
2022/04/21 00:17:39;;;;;;;0.00;0.00;;;;;;;;;;5111602;28;20658;-65
2022/04/21 00:20:08;;;;;;;0.00;0.00;;;;;;;;;;5110469;28;20193;-66
2022/04/21 00:25:20;;;;;;;0.00;0.00;;;;;;;;;;5111535;28;20208;-66
2022/04/21 00:27:52;;;;;;;0.00;0.00;;;;;;;;;;5110743;28;20200;-65
2022/04/21 00:30:19;;;;;;;0.00;0.00;;;;;;;;;;5121930;28;20572;-66
2022/04/21 00:32:48;;;;;;;0.00;0.00;;;;;;;;;;5110629;28;20197;-66
2022/04/21 00:35:17;;;;;;;0.40;0.40;;;;;;;;;;5109316;28;20193;-66
2022/04/21 00:37:45;;;;;;;0.00;0.00;;;;;;;;;;5110009;28;20208;-66
2022/04/21 00:40:13;;;;;;;0.20;0.20;;;;;;;;;;5111351;28;20571;-66
2022/04/21 00:42:40;;;;;;;0.00;0.00;;;;;;;;;;5109208;28;20700;-66
2022/04/21 00:45:09;;;;;;;0.57;0.50;;;;;;;;;;5111186;28;20201;-66
2022/04/21 00:47:40;;;;;;;0.17;0.13;;;;;;;;;;5109632;28;20846;-66
2022/04/21 00:50:11;;;;;;;0.50;0.37;;;;;;;;;;5100904;28;20199;-66
2022/04/21 00:52:40;;;;;;;0.17;0.17;;;;;;;;;;5103840;28;20198;-66
2022/04/21 00:55:08;;;;;;;0.23;0.23;;;;;;;;;;5103089;28;20202;-66
2022/04/21 00:57:36;;;;;;;0.00;0.00;;;;;;;;;;5098317;28;20290;-66
2022/04/21 01:00:05;;;;;;;0.00;0.00;;;;;;;;;;5110080;28;20206;-66
2022/04/21 01:02:50;;;;;;;0.00;0.00;;;;;;;;;;5110318;28;20198;-67
2022/04/21 01:05:25;;;;;;;0.10;0.10;;;;;;;;;;5114899;28;20196;-66
2022/04/21 01:07:53;;;;;;;0.57;0.57;;;;;;;;;;5111255;28;20533;-66
2022/04/21 01:10:20;;;;;;;0.10;0.10;;;;;;;;;;5111926;28;20201;-66
2022/04/21 01:12:48;;;;;;;0.00;0.00;;;;;;;;;;5113463;28;20305;-66
2022/04/21 01:15:16;;;;;;;0.57;0.57;;;;;;;;;;5115041;28;20243;-66
2022/04/21 01:17:45;;;;;;;0.40;0.40;;;;;;;;;;5112953;28;20568;-66
2022/04/21 01:20:16;;;;;;;0.77;0.77;;;;;;;;;;5113109;27;20205;-66
2022/04/21 01:22:44;;;;;;;0.00;0.00;;;;;;;;;;5110610;28;20642;-66
2022/04/21 01:25:11;;;;;;;0.10;0.10;;;;;;;;;;5114050;28;20206;-66
2022/04/21 01:27:39;;;;;;;0.33;0.33;;;;;;;;;;5107829;28;20201;-66
2022/04/21 01:30:08;;;;;;;0.37;0.23;;;;;;;;;;5109388;28;20197;-66
2022/04/21 01:32:37;;;;;;;0.40;0.30;;;;;;;;;;5115129;28;20247;-66
2022/04/21 01:35:06;;;;;;;0.30;0.30;;;;;;;;;;5107395;28;20280;-66
2022/04/21 01:43:06;;;;;;;0.13;0.13;;;;;;;;;;5114774;28;20224;-66
2022/04/21 01:45:33;;;;;;;0.37;0.37;;;;;;;;;;5109352;28;20251;-66
2022/04/21 01:48:01;;;;;;;0.60;0.43;;;;;;;;;;5107527;28;20198;-66
2022/04/21 01:50:28;;;;;;;0.73;0.73;;;;;;;;;;5114132;28;20205;-66
2022/04/21 01:52:58;;;;;;;0.43;0.43;;;;;;;;;;5122788;27;20201;-66
2022/04/21 01:55:25;;;;;;;0.53;0.53;;;;;;;;;;5110668;28;20193;-66
2022/04/21 01:57:53;;;;;;;0.00;0.00;;;;;;;;;;5109834;27;20226;-66
2022/04/21 02:00:20;;;;;;;0.00;0.00;;;;;;;;;;5113334;28;20197;-66
2022/04/21 02:02:47;;;;;;;0.10;0.10;;;;;;;;;;5112666;28;20190;-66
2022/04/21 02:05:15;;;;;;;0.10;0.10;;;;;;;;;;5128023;27;20208;-67
2022/04/21 02:07:44;;;;;;;0.40;0.40;;;;;;;;;;5098040;27;20275;-66
2022/04/21 02:10:13;;;;;;;0.60;0.23;;;;;;;;;;5102752;28;20202;-66
2022/04/21 02:12:41;;;;;;;0.00;0.00;;;;;;;;;;5113472;27;20202;-66
2022/04/21 02:15:09;;;;;;;0.93;0.73;;;;;;;;;;5109146;28;20194;-66
2022/04/21 02:17:36;;;;;;;0.07;0.07;;;;;;;;;;5108813;28;20301;-66
2022/04/21 02:20:05;;;;;;;0.10;0.10;;;;;;;;;;5102785;28;20197;-66
2022/04/21 02:22:32;;;;;;;0.23;0.20;;;;;;;;;;5095369;28;20580;-66
2022/04/21 02:24:59;;;;;;;1.33;1.30;;;;;;;;;;5111039;28;20198;-66
2022/04/21 02:27:28;;;;;;;0.00;0.00;;;;;;;;;;5096243;28;20209;-66
2022/04/21 02:29:56;;;;;;;0.43;0.40;;;;;;;;;;5111572;27;20566;-66
2022/04/21 02:32:23;;;;;;;0.30;0.30;;;;;;;;;;5108213;28;20200;-66
2022/04/21 02:34:51;;;;;;;0.00;0.00;;;;;;;;;;5113668;28;20201;-67
2022/04/21 02:37:19;;;;;;;0.20;0.20;;;;;;;;;;5107244;28;20229;-66
2022/04/21 02:39:46;;;;;;;2.07;0.40;;;;;;;;;;5113514;28;20693;-67
2022/04/21 02:42:13;;;;;;;0.00;0.00;;;;;;;;;;5110897;28;20197;-66
2022/04/21 02:44:42;;;;;;;0.00;0.00;;;;;;;;;;5093785;28;20194;-67
2022/04/21 02:47:10;;;;;;;0.00;0.00;;;;;;;;;;5115643;27;20194;-65
2022/04/21 02:49:38;;;;;;;0.20;0.10;;;;;;;;;;5108057;28;20194;-67
2022/04/21 02:52:06;;;;;;;2.67;0.87;;;;;;;;;;5112997;28;20223;-66
2022/04/21 02:57:21;;;;;;;0.20;0.20;;;;;;;;;;5112316;28;20589;-66
2022/04/21 02:59:50;;;;;;;0.50;0.50;;;;;;;;;;5104873;28;20700;-67
2022/04/21 03:02:18;;;;;;;0.50;0.50;;;;;;;;;;5105683;28;20743;-66
2022/04/21 03:04:45;;;;;;;0.00;0.00;;;;;;;;;;5112022;28;20246;-67
2022/04/21 03:07:13;;;;;;;0.03;0.03;;;;;;;;;;5105134;28;20206;-66
2022/04/21 03:09:40;;;;;;;0.47;0.47;;;;;;;;;;5105633;28;20201;-67
2022/04/21 03:12:09;;;;;;;1.03;1.03;;;;;;;;;;5110790;28;20205;-66
2022/04/21 03:14:36;;;;;;;0.30;0.17;;;;;;;;;;5104756;28;20670;-66
2022/04/21 03:17:05;;;;;;;2.20;2.10;;;;;;;;;;5104405;28;20860;-66
2022/04/21 03:19:33;;;;;;;0.10;0.10;;;;;;;;;;5096452;28;20211;-66
2022/04/21 03:24:45;;;;;;;0.00;0.00;;;;;;;;;;5101128;28;20342;-66
2022/04/21 03:27:13;;;;;;;0.30;0.30;;;;;;;;;;5111807;28;20224;-67
2022/04/21 03:29:40;;;;;;;0.00;0.00;;;;;;;;;;5111096;28;20198;-66
2022/04/21 03:32:10;;;;;;;0.10;0.10;;;;;;;;;;5109546;28;20248;-66
2022/04/21 03:34:40;;;;;;;0.50;0.50;;;;;;;;;;5102307;28;20194;-66
2022/04/21 03:37:07;;;;;;;0.00;0.00;;;;;;;;;;5112287;28;20263;-66
2022/04/21 03:39:36;;;;;;;1.70;0.73;;;;;;;;;;5105518;28;20197;-67
2022/04/21 03:42:03;;;;;;;1.27;0.30;;;;;;;;;;5111614;28;20288;-66
2022/04/21 03:44:31;;;;;;;0.40;0.40;;;;;;;;;;5111365;28;20197;-66
2022/04/21 03:46:58;;;;;;;0.40;0.40;;;;;;;;;;5103339;28;20194;-66
2022/04/21 03:49:28;;;;;;;0.50;0.50;;;;;;;;;;5107675;28;20570;-66
2022/04/21 03:51:56;;;;;;;0.67;0.67;;;;;;;;;;5117984;27;20201;-66
2022/04/21 03:54:23;;;;;;;0.10;0.10;;;;;;;;;;5133403;27;20201;-66
2022/04/21 03:56:51;;;;;;;0.70;0.70;;;;;;;;;;5118032;27;20317;-66
2022/04/21 03:59:18;;;;;;;0.10;0.10;;;;;;;;;;5110555;28;20230;-65
2022/04/21 04:01:46;;;;;;;0.57;0.20;;;;;;;;;;5112255;28;20658;-65
2022/04/21 04:04:14;;;;;;;0.07;0.07;;;;;;;;;;5118523;28;20557;-66
2022/04/21 04:12:13;;;;;;;0.00;0.00;;;;;;;;;;5112681;28;20205;-66
2022/04/21 04:14:40;;;;;;;0.93;0.50;;;;;;;;;;5113056;28;20194;-66
2022/04/21 04:17:08;;;;;;;0.17;0.17;;;;;;;;;;5108669;28;20228;-66
2022/04/21 04:19:35;;;;;;;1.10;1.10;;;;;;;;;;5106047;28;20205;-66
2022/04/21 04:22:04;;;;;;;0.30;0.30;;;;;;;;;;5111512;28;20225;-66
2022/04/21 04:24:32;;;;;;;0.73;0.73;;;;;;;;;;5110995;28;20197;-66
2022/04/21 04:26:59;;;;;;;2.53;1.40;;;;;;;;;;5109333;28;20208;-66
2022/04/21 04:29:26;;;;;;;3.70;2.57;;;;;;;;;;5108296;28;20202;-66
2022/04/21 04:31:54;;;;;;;0.37;0.20;;;;;;;;;;5104570;28;20228;-66
2022/04/21 04:34:22;;;;;;;0.00;0.00;;;;;;;;;;5106891;28;20212;-66
2022/04/21 04:36:50;;;;;;;0.23;0.23;;;;;;;;;;5109812;28;20217;-66
2022/04/21 04:39:18;;;;;;;0.83;0.33;;;;;;;;;;5113274;28;20197;-67
2022/04/21 04:44:31;;;;;;;0.10;0.10;;;;;;;;;;5111926;28;20250;-66
2022/04/21 04:46:57;;;;;;;0.63;0.63;;;;;;;;;;5112688;28;20197;-66
2022/04/21 04:49:25;;;;;;;0.27;0.27;;;;;;;;;;5107860;28;20251;-67
2022/04/21 04:51:52;;;;;;;0.60;0.47;;;;;;;;;;5104257;28;20202;-66
2022/04/21 04:54:21;;;;;;;0.60;0.40;;;;;;;;;;5098399;28;20201;-66
2022/04/21 04:56:49;;;;;;;0.27;0.27;;;;;;;;;;5111233;28;20198;-66
2022/04/21 04:59:16;;;;;;;0.33;0.17;;;;;;;;;;5095734;28;20671;-66
2022/04/21 05:01:45;;;;;;;2.97;2.40;;;;;;;;;;5102975;28;20202;-66
2022/04/21 05:04:13;;;;;;;1.23;1.13;;;;;;;;;;5097531;28;20193;-66
2022/04/21 05:06:41;;;;;;;0.17;0.17;;;;;;;;;;5101056;28;20195;-66
2022/04/21 05:09:10;;;;;;;0.10;0.10;;;;;;;;;;5111773;28;20202;-67
2022/04/21 05:11:39;;;;;;;0.70;0.70;;;;;;;;;;5104453;28;20204;-66
2022/04/21 05:14:07;;;;;;;0.67;0.50;;;;;;;;;;5102850;28;20663;-66
2022/04/21 05:16:36;;;;;;;0.20;0.20;;;;;;;;;;5098184;28;20229;-66
2022/04/21 05:19:04;;;;;;;0.10;0.10;;;;;;;;;;5110471;28;20293;-67
2022/04/21 05:21:32;;;;;;;1.90;1.47;;;;;;;;;;5100934;28;20226;-66
2022/04/21 05:24:01;;;;;;;1.50;1.37;;;;;;;;;;5114151;28;20554;-67
2022/04/21 05:26:29;;;;;;;1.70;1.60;;;;;;;;;;5109653;28;20202;-66
2022/04/21 05:28:58;;;;;;;0.33;0.33;;;;;;;;;;5105534;28;20654;-66
2022/04/21 05:31:26;;;;;;;1.27;1.00;;;;;;;;;;5110124;28;20204;-67
2022/04/21 05:33:55;;;;;;;0.50;0.50;;;;;;;;;;5103017;27;20213;-66
2022/04/21 05:36:22;;;;;;;1.07;0.43;;;;;;;;;;5112611;28;20662;-67
2022/04/21 05:38:51;;;;;;;1.90;0.77;;;;;;;;;;5113995;28;20271;-66
2022/04/21 05:41:19;;;;;;;1.83;1.23;;;;;;;;;;5106445;28;20198;-67
2022/04/21 05:43:50;;;;;;;0.30;0.30;;;;;;;;;;5103526;28;20229;-67
2022/04/21 05:46:19;;;;;;;0.10;0.10;;;;;;;;;;5112759;28;20206;-66
2022/04/21 05:48:46;;;;;;;0.33;0.30;;;;;;;;;;5112313;28;20200;-67
2022/04/21 05:51:15;;;;;;;1.07;1.03;;;;;;;;;;5113017;28;20628;-67
2022/04/21 05:53:48;;;;;;;0.47;0.47;;;;;;;;;;5113731;28;20662;-67
2022/04/21 05:56:16;;;;;;;0.30;0.27;;;;;;;;;;5097342;28;20199;-67
2022/04/21 05:58:44;;;;;;;1.93;1.40;;;;;;;;;;5113893;28;20225;-66
2022/04/21 06:01:12;;;;;;;1.07;0.60;;;;;;;;;;5112974;28;20193;-66
2022/04/21 06:03:41;;;;;;;1.03;0.93;;;;;;;;;;5113237;28;20237;-66
2022/04/21 06:06:10;;;;;;;1.13;1.13;;;;;;;;;;5110110;28;20312;-66
2022/04/21 06:08:37;;;;;;;0.33;0.30;;;;;;;;;;5114189;28;20268;-65
2022/04/21 06:11:04;;;;;;;0.97;0.70;;;;;;;;;;5112811;28;20531;-66
2022/04/21 06:13:32;;;;;;;0.30;0.30;;;;;;;;;;5105436;28;20194;-66
2022/04/21 06:16:00;;;;;;;1.37;1.37;;;;;;;;;;5106648;28;20206;-66
2022/04/21 06:18:27;;;;;;;1.23;1.17;;;;;;;;;;5108994;28;20231;-66
2022/04/21 06:20:56;;;;;;;0.70;0.70;;;;;;;;;;5104985;28;20654;-66
2022/04/21 06:23:24;;;;;;;1.60;1.07;;;;;;;;;;5111656;28;20236;-66
2022/04/21 06:25:58;;;;;;;0.50;0.40;;;;;;;;;;5113284;28;20262;-66
2022/04/21 06:28:26;;;;;;;1.33;1.23;;;;;;;;;;5111500;28;20201;-66
2022/04/21 06:30:53;;;;;;;0.53;0.53;;;;;;;;;;5112826;28;20205;-66
2022/04/21 06:33:21;;;;;;;0.23;0.23;;;;;;;;;;5113612;28;20190;-65
2022/04/21 06:35:48;;;;;;;0.33;0.33;;;;;;;;;;5106277;28;20290;-66
2022/04/21 06:38:17;;;;;;;0.83;0.83;;;;;;;;;;5093840;28;20226;-65
2022/04/21 06:40:45;;;;;;;1.33;0.73;;;;;;;;;;5106087;28;21383;-65
2022/04/21 06:48:43;;;;;;;1.40;1.30;;;;;;;;;;5111080;28;20583;-65
2022/04/21 06:51:11;;;;;;;0.37;0.37;;;;;;;;;;5096306;28;20202;-65
2022/04/21 06:53:42;;;;;;;0.03;0.03;;;;;;;;;;5112303;27;20201;-65
2022/04/21 06:56:11;;;;;;;0.67;0.67;;;;;;;;;;5112782;28;20259;-65
2022/04/21 06:58:40;;;;;;;0.90;0.90;;;;;;;;;;5112017;28;20232;-65
2022/04/21 07:01:07;;;;;;;1.73;1.63;;;;;;;;;;5109099;28;20270;-66
2022/04/21 07:03:35;;;;;;;0.73;0.70;;;;;;;;;;5112134;28;20229;-65
2022/04/21 07:06:03;;;;;;;0.87;0.77;;;;;;;;;;5110600;28;20220;-65
2022/04/21 07:08:30;;;;;;;0.57;0.57;;;;;;;;;;5104143;28;20756;-66
2022/04/21 07:10:59;;;;;;;0.97;0.83;;;;;;;;;;5106415;28;20254;-66
2022/04/21 07:13:26;;;;;;;1.70;1.60;;;;;;;;;;5111904;28;20204;-65
2022/04/21 07:15:54;;;;;;;0.23;0.23;;;;;;;;;;5110348;28;20280;-65
2022/04/21 07:18:21;;;;;;;1.03;0.80;;;;;;;;;;5110057;28;20774;-65
2022/04/21 07:20:49;;;;;;;0.87;0.87;;;;;;;;;;5113093;28;20280;-65
2022/04/21 07:23:16;;;;;;;0.30;0.30;;;;;;;;;;5111503;28;20236;-63
2022/04/21 07:25:44;;;;;;;0.00;0.00;;;;;;;;;;5111180;28;20654;-67
2022/04/21 07:28:12;;;;;;;0.83;0.57;;;;;;;;;;5111426;28;20722;-64
2022/04/21 07:30:40;;;;;;;0.83;0.83;;;;;;;;;;5108825;28;20636;-65
2022/04/21 07:33:08;;;;;;;1.85;1.38;;;;;;;;;;5112006;27;20559;-66
2022/04/21 07:35:35;;;;;;;0.55;0.55;;;;;;;;;;5110578;28;20219;-65
2022/04/21 07:38:03;;;;;;;1.42;1.33;;;;;;;;;;5111208;28;20694;-65
2022/04/21 07:40:32;;;;;;;0.43;0.38;;;;;;;;;;5113234;28;20226;-65
2022/04/21 07:43:03;;;;;;;0.13;0.13;;;;;;;;;;5111981;28;20194;-65
2022/04/21 07:45:33;;;;;;;0.45;0.45;;;;;;;;;;5096564;28;20190;-65
2022/04/21 07:48:01;;;;;;;0.20;0.20;;;;;;;;;;5102958;28;20221;-66
2022/04/21 07:50:28;;;;;;;0.85;0.85;;;;;;;;;;5113079;28;20240;-65
2022/04/21 07:53:14;;;;;;;0.68;0.68;;;;;;;;;;5098216;28;20193;-65
2022/04/21 07:55:42;;;;;;;0.77;0.75;;;;;;;;;;5112856;28;20251;-65
2022/04/21 07:58:11;;;;;;;0.73;0.73;;;;;;;;;;5112638;28;20701;-65
2022/04/21 08:00:40;;;;;;;0.20;0.20;;;;;;;;;;5112607;28;20205;-66
2022/04/21 08:03:09;;;;;;;1.88;1.67;;;;;;;;;;5109261;28;20193;-66
2022/04/21 08:05:37;;;;;;;1.55;1.20;;;;;;;;;;5092280;28;20285;-66
2022/04/21 08:08:05;;;;;;;1.55;1.45;;;;;;;;;;5092342;28;20289;-65
2022/04/21 08:10:32;;;;;;;1.92;1.52;;;;;;;;;;5099593;28;20197;-65
2022/04/21 08:13:00;;;;;;;1.93;1.70;;;;;;;;;;5109118;28;20194;-65
2022/04/21 08:15:27;;;;;;;0.85;0.70;;;;;;;;;;5110954;28;20227;-65
2022/04/21 08:17:58;;;;;;;1.98;1.27;;;;;;;;;;5110324;28;20247;-65
2022/04/21 08:20:26;;;;;;;0.93;0.85;;;;;;;;;;5101474;28;20268;-65
2022/04/21 08:22:55;;;;;;;1.00;0.93;;;;;;;;;;5107694;28;20634;-65
2022/04/21 08:33:39;;;;;;;1.55;0.95;;;;;;;;;;5107203;28;20200;-65
2022/04/21 08:36:06;;;;;;;0.00;0.00;;;;;;;;;;5101941;28;20225;-65
2022/04/21 08:38:35;;;;;;;0.60;0.47;;;;;;;;;;5108211;28;20256;-65
2022/04/21 08:41:06;;;;;;;0.57;0.50;;;;;;;;;;5109994;28;20189;-66
2022/04/21 08:43:35;;;;;;;0.32;0.32;;;;;;;;;;5097493;28;20189;-65
2022/04/21 08:46:04;;;;;;;0.15;0.10;;;;;;;;;;5111902;28;20196;-65
2022/04/21 08:48:33;;;;;;;0.35;0.35;;;;;;;;;;5110716;28;20658;-65
2022/04/21 08:51:03;;;;;;;1.27;1.17;;;;;;;;;;5094072;28;20202;-65
2022/04/21 08:53:32;;;;;;;0.03;0.03;;;;;;;;;;5111282;28;20208;-66
2022/04/21 08:56:00;;;;;;;0.30;0.30;;;;;;;;;;5111359;28;20284;-65
2022/04/21 08:58:27;;;;;;;0.10;0.10;;;;;;;;;;5106200;28;20218;-66
2022/04/21 09:00:57;;;;;;;0.47;0.47;;;;;;;;;;5101060;28;20361;-66
2022/04/21 09:03:24;;;;;;;0.25;0.25;;;;;;;;;;5111051;28;20237;-65
2022/04/21 09:05:52;;;;;;;0.00;0.00;;;;;;;;;;5109461;28;20205;-66
2022/04/21 09:08:21;;;;;;;1.50;1.17;;;;;;;;;;5108528;28;20916;-66
2022/04/21 09:11:02;;;;;;;0.08;0.08;;;;;;;;;;5111032;28;20615;-66
2022/04/21 09:13:34;;;;;;;2.88;0.95;;;;;;;;;;5104281;28;20662;-66
2022/04/21 09:16:05;;;;;;;2.53;1.50;;;;;;;;;;5094357;28;20225;-66
2022/04/21 09:18:39;;;;;;;0.90;0.90;;;;;;;;;;5104828;28;20256;-69
2022/04/21 09:21:08;;;;;;;1.33;1.13;;;;;;;;;;5105911;28;20247;-67
2022/04/21 09:23:37;;;;;;;0.60;0.55;;;;;;;;;;5108492;28;20194;-76
2022/04/21 09:26:08;;;;;;;1.08;1.02;;;;;;;;;;5110889;28;20202;-69
2022/04/21 09:28:36;;;;;;;0.00;0.00;;;;;;;;;;5106423;28;20276;-69
2022/04/21 09:31:03;;;;;;;0.60;0.60;;;;;;;;;;5114307;28;20277;-69
2022/04/21 09:33:31;;;;;;;0.55;0.50;;;;;;;;;;5114811;28;20240;-68
2022/04/21 09:36:00;;;;;;;0.52;0.52;;;;;;;;;;5112470;28;20208;-68
2022/04/21 09:38:27;;;;;;;1.42;1.20;;;;;;;;;;5109423;28;20226;-68
2022/04/21 09:40:56;;;;;;;1.05;0.95;;;;;;;;;;5111269;28;20212;-69
2022/04/21 09:43:28;;;;;;;0.60;0.60;;;;;;;;;;5114279;28;20216;-69
2022/04/21 09:46:10;;;;;;;1.23;1.13;;;;;;;;;;5108582;28;20199;-69
2022/04/21 09:48:38;;;;;;;0.95;0.65;;;;;;;;;;5111495;28;20665;-69
2022/04/21 09:51:10;;;;;;;2.63;1.90;;;;;;;;;;5111242;28;20692;-68
2022/04/21 09:53:51;;;;;;;0.40;0.40;;;;;;;;;;5095137;28;20316;-69
2022/04/21 09:56:30;;;;;;;0.52;0.35;;;;;;;;;;5115375;28;20193;-69
2022/04/21 09:58:58;;;;;;;1.25;0.75;;;;;;;;;;5108169;28;20224;-69
2022/04/21 10:01:26;;;;;;;0.00;0.00;;;;;;;;;;5115249;28;20293;-69
2022/04/21 10:03:54;;;;;;;1.42;0.35;;;;;;;;;;5107484;28;20197;-68
2022/04/21 10:06:22;;;;;;;0.40;0.38;;;;;;;;;;5115005;28;20281;-66
2022/04/21 10:08:50;;;;;;;0.38;0.38;;;;;;;;;;5104869;28;20206;-67
2022/04/21 10:11:23;;;;;;;0.15;0.15;;;;;;;;;;5094399;28;20285;-68
2022/04/21 10:13:54;;;;;;;0.93;0.63;;;;;;;;;;5096979;28;20285;-67
2022/04/21 10:16:21;;;;;;;0.73;0.38;;;;;;;;;;5100729;28;20204;-67
2022/04/21 10:18:51;;;;;;;0.30;0.25;;;;;;;;;;5107884;27;20226;-66
2022/04/21 10:21:21;;;;;;;12.57;0.93;;;;;;;;;;5102716;28;20217;-66
2022/04/21 10:23:48;;;;;;;0.88;0.88;;;;;;;;;;5114149;28;20193;-67
2022/04/21 10:26:35;;;;;;;4.32;2.00;;;;;;;;;;5105900;28;20200;-68
2022/04/21 10:29:11;;;;;;;1.67;0.88;;;;;;;;;;5113758;28;20243;-68
2022/04/21 10:31:46;;;;;;;2.75;1.02;;;;;;;;;;5113068;28;20197;-68
2022/04/21 10:34:28;;;;;;;0.88;0.77;;;;;;;;;;5113642;28;20283;-66
2022/04/21 10:37:06;;;;;;;0.30;0.30;;;;;;;;;;5096704;28;20198;-67
2022/04/21 10:39:34;;;;;;;0.25;0.05;;;;;;;;;;5093904;28;20257;-69
2022/04/21 10:42:08;;;;;;;1.08;0.77;;;;;;;;;;5110112;28;20246;-68
2022/04/21 10:44:44;;;;;;;0.15;0.10;;;;;;;;;;5110626;28;20215;-68
2022/04/21 10:47:32;;;;;;;0.32;0.10;;;;;;;;;;5110946;28;20222;-67
2022/04/21 10:50:00;;;;;;;0.60;0.60;;;;;;;;;;5107856;28;20197;-68
2022/04/21 10:58:27;;;;;;;1.25;1.05;;;;;;;;;;5106414;28;20206;-68
2022/04/21 11:01:09;;;;;;;2.03;1.85;;;;;;;;;;5100025;28;20201;-67
2022/04/21 11:03:37;;;;;;;0.57;0.47;;;;;;;;;;5104189;28;20213;-68
2022/04/21 11:06:07;;;;;;;0.20;0.20;;;;;;;;;;5112365;28;20194;-68
2022/04/21 11:08:35;;;;;;;0.70;0.70;;;;;;;;;;5112473;28;20198;-68
2022/04/21 11:11:03;;;;;;;0.60;0.60;;;;;;;;;;5109918;28;20193;-67
2022/04/21 11:13:45;;;;;;;1.30;1.20;;;;;;;;;;5111441;28;20193;-68
2022/04/21 11:16:34;;;;;;;1.15;1.05;;;;;;;;;;5108414;28;20201;-68
2022/04/21 11:19:16;;;;;;;0.98;0.47;;;;;;;;;;5108446;28;20222;-67
2022/04/21 11:21:52;;;;;;;1.02;0.93;;;;;;;;;;5102969;28;20233;-68
2022/04/21 11:24:20;;;;;;;0.70;0.60;;;;;;;;;;5099153;28;20198;-68
2022/04/21 11:26:54;;;;;;;0.65;0.65;;;;;;;;;;5106478;28;20314;-68
2022/04/21 11:29:21;;;;;;;0.43;0.28;;;;;;;;;;5096057;28;20193;-68
2022/04/21 11:31:50;;;;;;;0.55;0.55;;;;;;;;;;5112537;28;20650;-68
2022/04/21 11:34:23;;;;;;;0.77;0.70;;;;;;;;;;5112874;28;20284;-68
2022/04/21 11:36:50;;;;;;;0.52;0.52;;;;;;;;;;5097941;28;20236;-68
2022/04/21 11:39:18;;;;;;;1.02;0.55;;;;;;;;;;5104784;28;20323;-68
2022/04/21 11:41:47;;;;;;;0.30;0.30;;;;;;;;;;5111778;28;20232;-68
2022/04/21 11:44:21;;;;;;;1.20;0.40;;;;;;;;;;5096392;28;20197;-68
2022/04/21 11:46:48;;;;;;;0.20;0.20;;;;;;;;;;5100406;28;20210;-68
2022/04/21 11:49:17;;;;;;;0.60;0.50;;;;;;;;;;5091865;28;20205;-68
2022/04/21 11:51:47;;;;;;;0.55;0.50;;;;;;;;;;5109159;28;20670;-68
2022/04/21 11:54:14;;;;;;;2.10;0.75;;;;;;;;;;5113146;28;20204;-68
2022/04/21 11:56:42;;;;;;;0.85;0.75;;;;;;;;;;5104900;28;20205;-68
2022/04/21 11:59:10;;;;;;;3.85;0.28;;;;;;;;;;5111973;28;20236;-67
2022/04/21 12:07:16;;;;;;;0.50;0.50;;;;;;;;;;5111612;28;20204;-68
2022/04/21 12:09:46;;;;;;;0.40;0.40;;;;;;;;;;5111810;28;20240;-69
2022/04/21 12:12:15;;;;;;;1.27;0.82;;;;;;;;;;5113023;28;20201;-69
2022/04/21 12:14:43;;;;;;;0.20;0.20;;;;;;;;;;5112525;28;20237;-69
2022/04/21 12:17:11;;;;;;;0.32;0.32;;;;;;;;;;5109750;28;21026;-68
2022/04/21 12:19:41;;;;;;;1.88;1.77;;;;;;;;;;5106908;28;22372;-68
2022/04/21 12:22:09;;;;;;;0.50;0.50;;;;;;;;;;5110545;28;20253;-69
2022/04/21 12:24:37;;;;;;;1.42;1.33;;;;;;;;;;5110539;28;20217;-68
2022/04/21 12:27:06;;;;;;;0.50;0.50;;;;;;;;;;5111773;28;20233;-68
2022/04/21 12:29:46;;;;;;;0.85;0.73;;;;;;;;;;5112332;28;20190;-68
2022/04/21 12:32:13;;;;;;;0.00;0.00;;;;;;;;;;5109422;28;20193;-69
2022/04/21 12:34:42;;;;;;;0.82;0.80;;;;;;;;;;5112571;28;20276;-69
2022/04/21 12:37:10;;;;;;;0.82;0.70;;;;;;;;;;5112092;28;20289;-65
2022/04/21 12:39:38;;;;;;;1.45;1.35;;;;;;;;;;5112264;28;20228;-70
2022/04/21 12:42:06;;;;;;;0.40;0.40;;;;;;;;;;5110815;28;20197;-69
2022/04/21 12:44:34;;;;;;;0.50;0.50;;;;;;;;;;5111700;28;20197;-68
2022/04/21 12:47:02;;;;;;;0.20;0.20;;;;;;;;;;5112587;28;20203;-69
2022/04/21 12:49:48;;;;;;;0.17;0.17;;;;;;;;;;5112121;28;20684;-69
2022/04/21 12:52:17;;;;;;;0.60;0.60;;;;;;;;;;5110071;28;20233;-69
2022/04/21 12:54:49;;;;;;;1.08;0.70;;;;;;;;;;5108459;28;20285;-68
2022/04/21 12:57:17;;;;;;;0.55;0.50;;;;;;;;;;5091662;28;20287;-69
2022/04/21 12:59:46;;;;;;;0.80;0.80;;;;;;;;;;5094507;28;20271;-68
2022/04/21 13:02:14;;;;;;;1.20;1.10;;;;;;;;;;5103538;28;20681;-68
2022/04/21 13:04:42;;;;;;;0.85;0.85;;;;;;;;;;5116291;28;20662;-68
2022/04/21 13:07:10;;;;;;;0.17;0.17;;;;;;;;;;5116004;28;20291;-67
2022/04/21 13:09:39;;;;;;;2.30;2.10;;;;;;;;;;5115519;28;20292;-68
2022/04/21 13:12:07;;;;;;;0.10;0.10;;;;;;;;;;5114631;28;20198;-68
2022/04/21 13:14:34;;;;;;;1.70;0.60;;;;;;;;;;5116026;28;20698;-68
2022/04/21 13:17:02;;;;;;;0.57;0.45;;;;;;;;;;5116189;28;20198;-67
2022/04/21 13:19:29;;;;;;;0.63;0.63;;;;;;;;;;5114904;28;20221;-67
2022/04/21 13:21:57;;;;;;;0.17;0.03;;;;;;;;;;5114800;28;20290;-67
2022/04/21 13:24:24;;;;;;;0.55;0.55;;;;;;;;;;5115815;28;20243;-67
2022/04/21 13:26:53;;;;;;;0.30;0.30;;;;;;;;;;5115953;28;20627;-67
2022/04/21 13:29:21;;;;;;;1.08;1.08;;;;;;;;;;5114840;28;20276;-67
2022/04/21 13:34:34;;;;;;;0.57;0.43;;;;;;;;;;5115832;28;20242;-67
2022/04/21 13:37:02;;;;;;;0.40;0.40;;;;;;;;;;5115826;27;20250;-67
2022/04/21 13:39:29;;;;;;;1.10;0.95;;;;;;;;;;5114662;28;20257;-67
2022/04/21 13:41:58;;;;;;;0.85;0.85;;;;;;;;;;5114208;28;20359;-67
2022/04/21 13:44:26;;;;;;;1.35;1.05;;;;;;;;;;5115521;28;20285;-68
2022/04/21 13:46:56;;;;;;;0.20;0.20;;;;;;;;;;5115639;28;20204;-67
2022/04/21 13:49:23;;;;;;;0.73;0.73;;;;;;;;;;5107370;28;20194;-68
2022/04/21 13:51:50;;;;;;;1.27;0.85;;;;;;;;;;5095602;28;20194;-67
2022/04/21 13:54:18;;;;;;;0.70;0.70;;;;;;;;;;5113960;28;20190;-68
2022/04/21 13:56:46;;;;;;;1.55;0.65;;;;;;;;;;5115480;28;20193;-67
2022/04/21 13:59:15;;;;;;;0.88;0.40;;;;;;;;;;5114178;28;20565;-67
2022/04/21 14:01:43;;;;;;;0.98;0.63;;;;;;;;;;5115172;28;20193;-68
2022/04/21 14:04:11;;;;;;;0.70;0.52;;;;;;;;;;5114838;28;20201;-67
2022/04/21 14:06:38;;;;;;;0.95;0.77;;;;;;;;;;5114342;28;20654;-67
2022/04/21 14:09:06;;;;;;;0.60;0.17;;;;;;;;;;5113639;27;20190;-67
2022/04/21 14:11:34;;;;;;;0.60;0.60;;;;;;;;;;5114311;28;20229;-67
2022/04/21 14:14:02;;;;;;;0.20;0.00;;;;;;;;;;5114105;28;20233;-67
2022/04/21 14:16:32;;;;;;;0.35;0.30;;;;;;;;;;5114817;28;20727;-67
2022/04/21 14:18:59;;;;;;;0.82;0.80;;;;;;;;;;5114012;28;20292;-68
2022/04/21 14:21:27;;;;;;;0.68;0.57;;;;;;;;;;5113784;28;20601;-67
2022/04/21 14:23:54;;;;;;;1.70;1.10;;;;;;;;;;5113838;28;20221;-67
2022/04/21 14:26:22;;;;;;;1.52;1.42;;;;;;;;;;5114666;28;20199;-69
2022/04/21 14:28:49;;;;;;;0.20;0.20;;;;;;;;;;5112351;28;20273;-68
2022/04/21 14:31:16;;;;;;;0.70;0.38;;;;;;;;;;5095262;28;20230;-67
2022/04/21 14:33:45;;;;;;;0.82;0.65;;;;;;;;;;5111247;28;20620;-68
2022/04/21 14:36:13;;;;;;;0.40;0.30;;;;;;;;;;5114806;28;20204;-67
2022/04/21 14:44:13;;;;;;;0.32;0.32;;;;;;;;;;5114578;28;20255;-67
2022/04/21 14:46:44;;;;;;;0.22;0.22;;;;;;;;;;5114605;28;20224;-68
2022/04/21 14:49:14;;;;;;;8.98;0.70;;;;;;;;;;5112615;27;20202;-67
2022/04/21 14:51:43;;;;;;;1.75;1.17;;;;;;;;;;5112988;28;20277;-68
2022/04/21 14:54:11;;;;;;;0.98;0.75;;;;;;;;;;5093847;28;20194;-68
2022/04/21 14:56:42;;;;;;;0.35;0.35;;;;;;;;;;5093993;28;20293;-68
2022/04/21 14:59:09;;;;;;;0.38;0.38;;;;;;;;;;5094726;27;20274;-66
2022/04/21 15:01:38;;;;;;;0.60;0.60;;;;;;;;;;5112337;28;20308;-67
2022/04/21 15:04:06;;;;;;;0.30;0.22;;;;;;;;;;5114138;28;20197;-67
2022/04/21 15:06:35;;;;;;;0.03;0.03;;;;;;;;;;5113765;28;20217;-68
2022/04/21 15:09:03;;;;;;;0.73;0.52;;;;;;;;;;5111698;28;20323;-68
2022/04/21 15:11:30;;;;;;;1.98;1.60;;;;;;;;;;5113090;28;20197;-68
2022/04/21 15:13:57;;;;;;;1.75;1.52;;;;;;;;;;5113810;28;20678;-67
2022/04/21 15:16:25;;;;;;;2.35;1.73;;;;;;;;;;5113691;28;20220;-67
2022/04/21 15:18:52;;;;;;;1.17;0.73;;;;;;;;;;5112035;28;20190;-67
2022/04/21 15:21:20;;;;;;;1.90;1.65;;;;;;;;;;5112926;28;20701;-67
2022/04/21 15:23:49;;;;;;;0.80;0.50;;;;;;;;;;5112790;28;20310;-68
2022/04/21 15:26:16;;;;;;;3.20;1.65;;;;;;;;;;5109946;28;20190;-67
2022/04/21 15:28:45;;;;;;;0.13;0.13;;;;;;;;;;5113451;28;20288;-68
2022/04/21 15:31:13;;;;;;;0.35;0.35;;;;;;;;;;5112957;28;20198;-63
2022/04/21 15:33:41;;;;;;;1.08;1.05;;;;;;;;;;5113282;28;20737;-65
2022/04/21 15:36:08;;;;;;;0.65;0.65;;;;;;;;;;5111969;28;20571;-68
2022/04/21 15:38:36;;;;;;;0.40;0.40;;;;;;;;;;5113242;28;20288;-68
2022/04/21 15:41:05;;;;;;;0.25;0.25;;;;;;;;;;5113345;28;20311;-67
2022/04/21 15:43:32;;;;;;;0.00;0.00;;;;;;;;;;5112988;28;20551;-67
2022/04/21 15:46:00;;;;;;;0.85;0.82;;;;;;;;;;5111169;28;20284;-67
2022/04/21 15:48:27;;;;;;;0.45;0.45;;;;;;;;;;5112937;28;20193;-66